Time;durP1;ratioP1;P1;durP2;ratioP2;P2;SDS_P1;SDS_P2;PMS_P1;PMS_P2;Temp;Humidity;BMP_temperature;BMP_pressure;BME280_temperature;BME280_humidity;BME280_pressure;Samples;Min_cycle;Max_cycle;Signal;HPM_P1;HPM_P2
2023/10/19 00:00:40;;;;;;;15.48;10.50;;;13.60;99.90;;;;;;6260840;22;20019;-79
2023/10/19 00:03:07;;;;;;;18.40;13.48;;;13.70;99.90;;;;;;6262001;22;20559;-80
2023/10/19 00:05:36;;;;;;;16.30;13.10;;;13.70;99.90;;;;;;6287787;22;20019;-79
2023/10/19 00:11:03;;;;;;;15.65;12.48;;;13.60;99.90;;;;;;6183634;22;20019;-79
2023/10/19 00:13:29;;;;;;;15.43;12.40;;;13.60;99.90;;;;;;6261600;22;20011;-75
2023/10/19 00:15:57;;;;;;;18.02;13.75;;;13.50;99.90;;;;;;6261550;22;20381;-79
2023/10/19 00:18:24;;;;;;;23.65;16.92;;;13.50;99.90;;;;;;6287813;22;20062;-80
2023/10/19 00:20:59;;;;;;;17.95;12.73;;;13.50;99.90;;;;;;6286776;22;20063;-80
2023/10/19 00:23:29;;;;;;;18.83;13.60;;;13.50;99.90;;;;;;6213348;22;20078;-76
2023/10/19 00:25:59;;;;;;;22.27;17.85;;;13.50;99.90;;;;;;6288365;22;20351;-81
2023/10/19 00:28:27;;;;;;;19.38;14.27;;;13.50;99.90;;;;;;6262799;22;20401;-78
2023/10/19 00:31:03;;;;;;;18.27;13.05;;;13.50;99.90;;;;;;6210287;22;20011;-78
2023/10/19 00:33:29;;;;;;;18.83;13.98;;;13.40;99.90;;;;;;6259948;22;20042;-76
2023/10/19 00:36:08;;;;;;;16.52;12.43;;;13.40;99.90;;;;;;6261491;22;20014;-79
2023/10/19 00:41:34;;;;;;;21.50;15.60;;;13.50;99.90;;;;;;6288438;22;20069;-78
2023/10/19 00:44:42;;;;;;;16.85;11.90;;;13.50;99.90;;;;;;6282273;22;20023;-75
2023/10/19 00:46:49;;;;;;;19.40;14.80;;;13.60;99.90;;;;;;6246620;22;20058;-78
2023/10/19 00:49:15;;;;;;;20.98;15.90;;;13.60;99.90;;;;;;6264251;22;20011;-75
2023/10/19 00:57:35;;;;;;;18.38;13.07;;;13.40;99.90;;;;;;6269774;22;20011;-80
2023/10/19 01:00:11;;;;;;;24.70;18.55;;;13.60;99.90;;;;;;6216000;22;20500;-78
2023/10/19 01:02:45;;;;;;;15.40;11.38;;;13.70;99.90;;;;;;6285262;22;20029;-80
2023/10/19 01:05:13;;;;;;;20.63;16.08;;;13.50;99.90;;;;;;6285675;22;20322;-76
2023/10/19 01:07:40;;;;;;;23.08;16.00;;;13.60;99.90;;;;;;6259995;22;20023;-83
2023/10/19 01:10:20;;;;;;;21.17;16.73;;;13.40;99.90;;;;;;6285319;22;20007;-80
2023/10/19 01:12:49;;;;;;;21.55;16.63;;;13.50;99.90;;;;;;6286699;22;20063;-78
2023/10/19 01:15:17;;;;;;;21.88;15.60;;;13.40;99.90;;;;;;6259834;22;20070;-79
2023/10/19 01:17:45;;;;;;;22.90;17.77;;;13.40;99.90;;;;;;6286109;22;20066;-76
2023/10/19 01:20:23;;;;;;;22.00;16.85;;;13.70;99.90;;;;;;6285955;22;20016;-77
2023/10/19 01:22:53;;;;;;;24.38;19.30;;;13.70;99.90;;;;;;6290355;22;20010;-76
2023/10/19 01:25:34;;;;;;;20.17;15.32;;;13.50;99.90;;;;;;6264104;22;20187;-76
2023/10/19 01:28:07;;;;;;;19.13;13.55;;;13.50;99.90;;;;;;6289163;22;20011;-74
2023/10/19 01:30:33;;;;;;;20.85;14.93;;;13.40;99.90;;;;;;6287817;22;20065;-80
2023/10/19 01:32:59;;;;;;;22.52;16.45;;;13.50;99.90;;;;;;6263351;22;20429;-81
2023/10/19 01:35:26;;;;;;;21.17;17.08;;;13.60;99.90;;;;;;6262519;22;20071;-78
2023/10/19 01:37:55;;;;;;;18.33;13.15;;;13.40;99.90;;;;;;6263463;22;20038;-80
2023/10/19 01:40:21;;;;;;;25.23;19.75;;;13.70;99.90;;;;;;6264407;22;20018;-76
2023/10/19 01:42:47;;;;;;;24.98;17.38;;;13.40;99.90;;;;;;6288107;22;20019;-76
2023/10/19 01:45:13;;;;;;;27.05;20.83;;;13.40;99.90;;;;;;6288089;22;20050;-77
2023/10/19 01:47:40;;;;;;;22.00;15.75;;;13.50;99.90;;;;;;6262292;22;20017;-77
2023/10/19 01:50:17;;;;;;;20.15;15.05;;;13.50;99.90;;;;;;6287908;22;20015;-73
2023/10/19 01:52:45;;;;;;;20.25;16.58;;;13.40;99.90;;;;;;6286671;22;20141;-77
2023/10/19 01:55:12;;;;;;;20.55;15.45;;;13.70;99.90;;;;;;6236875;22;20007;-75
2023/10/19 01:57:39;;;;;;;24.88;17.35;;;13.50;99.90;;;;;;6287553;22;20098;-80
2023/10/19 02:00:11;;;;;;;23.40;17.17;;;13.30;99.90;;;;;;6264271;22;20066;-78
2023/10/19 02:02:36;;;;;;;22.55;16.20;;;13.50;99.90;;;;;;6265660;22;20015;-76
2023/10/19 02:05:13;;;;;;;22.52;16.98;;;13.40;99.90;;;;;;6265340;22;20014;-81
2023/10/19 02:07:39;;;;;;;21.27;16.58;;;13.50;99.90;;;;;;6266914;22;20159;-82
2023/10/19 02:10:07;;;;;;;20.98;15.20;;;13.50;99.90;;;;;;6265302;22;20011;-80
2023/10/19 02:12:34;;;;;;;32.95;22.77;;;13.30;99.90;;;;;;6290262;22;20007;-80
2023/10/19 02:15:00;;;;;;;18.60;13.30;;;13.80;99.90;;;;;;6236816;22;20007;-78
2023/10/19 02:17:25;;;;;;;19.67;12.82;;;13.60;99.90;;;;;;6286796;22;20174;-76
2023/10/19 02:19:51;;;;;;;19.75;14.50;;;13.60;99.90;;;;;;6287809;22;20011;-83
2023/10/19 02:22:17;;;;;;;19.42;15.27;;;13.30;99.90;;;;;;6261702;22;20046;-78
2023/10/19 02:24:42;;;;;;;22.08;17.05;;;13.40;99.90;;;;;;6212380;22;20114;-83
2023/10/19 02:27:09;;;;;;;27.05;17.60;;;13.80;99.90;;;;;;6235374;22;20011;-77
2023/10/19 02:29:36;;;;;;;22.80;18.48;;;13.40;99.90;;;;;;6236093;22;20223;-77
2023/10/19 02:32:05;;;;;;;19.88;14.85;;;13.30;99.90;;;;;;6288733;22;20423;-78
2023/10/19 02:34:31;;;;;;;21.63;17.00;;;13.80;99.90;;;;;;6262414;22;20007;-76
2023/10/19 02:36:57;;;;;;;22.60;17.15;;;13.70;99.90;;;;;;6235930;22;20208;-80
2023/10/19 02:39:28;;;;;;;20.00;14.32;;;13.50;99.90;;;;;;6236728;22;20259;-81
2023/10/19 02:41:54;;;;;;;26.45;19.73;;;13.40;99.90;;;;;;6287932;22;20062;-79
2023/10/19 02:44:25;;;;;;;18.88;12.75;;;13.40;99.90;;;;;;6237304;22;20011;-78
2023/10/19 02:47:08;;;;;;;20.85;15.93;;;13.70;99.90;;;;;;6288404;22;20018;-78
2023/10/19 02:49:39;;;;;;;17.27;12.30;;;13.80;99.90;;;;;;6264099;22;20015;-79
2023/10/19 02:52:05;;;;;;;20.38;15.77;;;13.40;99.90;;;;;;6236828;22;20011;-81
2023/10/19 02:54:34;;;;;;;20.00;16.23;;;13.70;99.90;;;;;;6262001;22;20021;-78
2023/10/19 02:57:00;;;;;;;18.17;15.68;;;13.40;99.90;;;;;;6263451;22;20007;-78
2023/10/19 02:59:28;;;;;;;18.98;14.85;;;13.60;99.90;;;;;;6262773;22;20034;-79
2023/10/19 03:04:39;;;;;;;14.75;12.38;;;13.40;99.90;;;;;;6286117;22;20057;-82
2023/10/19 03:07:07;;;;;;;20.77;15.60;;;13.80;99.90;;;;;;6255870;22;20071;-81
2023/10/19 03:09:36;;;;;;;22.67;16.33;;;13.70;99.90;;;;;;6255844;22;20034;-80
2023/10/19 03:12:03;;;;;;;17.30;13.60;;;13.50;99.90;;;;;;6257374;22;20015;-82
2023/10/19 03:14:29;;;;;;;15.13;11.90;;;13.40;99.90;;;;;;6282174;22;20007;-78
2023/10/19 03:16:55;;;;;;;14.70;11.52;;;13.70;99.90;;;;;;6231984;22;20053;-80
2023/10/19 03:19:21;;;;;;;15.73;11.82;;;13.90;99.90;;;;;;6257186;22;20019;-78
2023/10/19 03:21:50;;;;;;;15.55;10.45;;;13.70;99.90;;;;;;6258529;22;20071;-82
2023/10/19 03:27:18;;;;;;;;;;;13.70;99.90;;;;;;6281852;22;20024;-75
2023/10/19 03:29:48;;;;;;;15.77;12.45;;;13.90;99.90;;;;;;6281932;22;20141;-77
2023/10/19 03:32:16;;;;;;;15.73;12.55;;;13.70;99.90;;;;;;6281710;22;20255;-75
2023/10/19 03:34:47;;;;;;;13.10;10.32;;;13.90;99.90;;;;;;6257074;22;20321;-80
2023/10/19 03:37:14;;;;;;;18.45;12.90;;;13.80;99.90;;;;;;6232293;22;20177;-77
2023/10/19 03:39:41;;;;;;;16.08;13.43;;;13.40;99.90;;;;;;6256300;22;20470;-76
2023/10/19 03:42:07;;;;;;;14.43;11.70;;;13.60;99.90;;;;;;6281692;22;20080;-82
2023/10/19 03:47:19;;;;;;;10.70;8.80;;;13.90;99.90;;;;;;6258464;22;20050;-77
2023/10/19 03:49:46;;;;;;;12.35;10.07;;;13.80;99.90;;;;;;6280673;22;20011;-77
2023/10/19 03:54:39;;;;;;;15.00;11.48;;;14.00;99.90;;;;;;6256021;22;20019;-79
2023/10/19 03:57:54;;;;;;;19.42;14.43;;;14.00;99.90;;;;;;6281361;22;20059;-79
2023/10/19 03:59:56;;;;;;;14.13;12.15;;;14.00;99.90;;;;;;6261345;22;20167;-83
2023/10/19 04:02:29;;;;;;;14.48;11.30;;;14.10;99.90;;;;;;6283263;22;20253;-83
2023/10/19 04:04:57;;;;;;;13.75;10.50;;;13.70;99.90;;;;;;6283103;22;20008;-79
2023/10/19 04:07:25;;;;;;;16.08;13.50;;;13.60;99.90;;;;;;6283440;22;20099;-78
2023/10/19 04:12:36;;;;;;;12.25;10.30;;;13.90;99.90;;;;;;6282593;22;20070;-77
2023/10/19 04:15:15;;;;;;;14.65;10.75;;;13.90;99.90;;;;;;6254780;22;20232;-78
2023/10/19 04:17:48;;;;;;;11.43;8.77;;;13.90;99.90;;;;;;6258752;22;20031;-78
2023/10/19 04:22:42;;;;;;;21.67;16.13;;;13.80;99.90;;;;;;6279245;22;20011;-77
2023/10/19 04:25:12;;;;;;;14.75;12.40;;;13.90;99.90;;;;;;6279690;22;20007;-80
2023/10/19 04:27:42;;;;;;;14.02;11.45;;;13.60;99.90;;;;;;6281142;22;20057;-76
2023/10/19 04:30:15;;;;;;;16.75;12.93;;;13.80;99.90;;;;;;6280353;22;20016;-78
2023/10/19 04:32:42;;;;;;;12.18;9.63;;;13.60;99.90;;;;;;6279881;22;20034;-79
2023/10/19 04:35:12;;;;;;;10.30;8.93;;;13.60;99.90;;;;;;6254553;22;20008;-77
2023/10/19 04:37:42;;;;;;;18.05;14.05;;;13.60;99.90;;;;;;6280510;22;20068;-76
2023/10/19 04:40:09;;;;;;;17.73;13.30;;;13.80;99.90;;;;;;6254996;22;20289;-81
2023/10/19 04:42:36;;;;;;;13.07;11.18;;;13.80;99.90;;;;;;6229669;22;20003;-81
2023/10/19 04:45:03;;;;;;;12.35;9.93;;;14.20;99.90;;;;;;6254511;22;20032;-79
2023/10/19 04:47:29;;;;;;;13.98;11.45;;;14.10;99.90;;;;;;6279793;22;20067;-79
2023/10/19 04:49:55;;;;;;;11.18;9.70;;;13.80;99.90;;;;;;6254695;22;20333;-75
2023/10/19 04:52:21;;;;;;;13.00;11.15;;;13.70;99.90;;;;;;6281895;22;20007;-79
2023/10/19 04:54:50;;;;;;;14.75;11.88;;;14.30;99.90;;;;;;6282175;22;20302;-79
2023/10/19 04:57:16;;;;;;;12.30;9.82;;;14.20;99.90;;;;;;6231402;22;20316;-85
2023/10/19 04:59:45;;;;;;;13.18;10.52;;;14.00;99.90;;;;;;6283564;22;20083;-80
2023/10/19 05:02:11;;;;;;;10.45;8.25;;;14.30;99.90;;;;;;6233199;22;20012;-82
2023/10/19 05:04:37;;;;;;;9.88;7.57;;;14.20;99.90;;;;;;6206419;22;20015;-78
2023/10/19 05:07:03;;;;;;;11.38;9.07;;;13.80;99.90;;;;;;6256259;22;20027;-79
2023/10/19 05:09:30;;;;;;;13.90;11.48;;;13.70;99.90;;;;;;6257053;22;20024;-77
2023/10/19 05:11:56;;;;;;;9.00;7.97;;;14.30;99.90;;;;;;6262329;22;20012;-81
2023/10/19 05:14:22;;;;;;;11.05;9.35;;;14.40;99.90;;;;;;6284946;22;20262;-78
2023/10/19 05:16:48;;;;;;;9.85;7.75;;;13.90;99.90;;;;;;6260385;22;20019;-81
2023/10/19 05:19:14;;;;;;;10.23;8.77;;;14.30;99.90;;;;;;6259237;22;20011;-81
2023/10/19 05:21:40;;;;;;;11.40;9.07;;;14.40;99.90;;;;;;6258313;22;20232;-80
2023/10/19 05:24:07;;;;;;;11.25;9.55;;;14.40;99.90;;;;;;6232703;22;20039;-80
2023/10/19 05:26:35;;;;;;;9.40;7.65;;;13.80;99.90;;;;;;6259564;22;20018;-76
2023/10/19 05:29:01;;;;;;;11.00;9.00;;;13.80;99.90;;;;;;6286762;22;20046;-80
2023/10/19 05:31:28;;;;;;;9.07;7.50;;;14.40;99.90;;;;;;6261524;22;20508;-76
2023/10/19 05:33:54;;;;;;;9.10;7.50;;;14.30;99.90;;;;;;6260474;22;20007;-80
2023/10/19 05:36:19;;;;;;;8.50;6.85;;;14.20;99.90;;;;;;6284423;22;20007;-78
2023/10/19 05:38:45;;;;;;;8.52;7.00;;;14.30;99.90;;;;;;6259385;22;20107;-79
2023/10/19 05:41:11;;;;;;;7.18;5.57;;;14.30;99.90;;;;;;6283297;22;20019;-80
2023/10/19 05:43:38;;;;;;;7.40;5.95;;;14.00;99.90;;;;;;6283881;22;20034;-78
2023/10/19 05:46:04;;;;;;;6.40;5.70;;;14.00;99.90;;;;;;6232194;22;20019;-79
2023/10/19 05:48:31;;;;;;;7.30;6.30;;;14.10;99.90;;;;;;6257622;22;20019;-75
2023/10/19 05:50:57;;;;;;;6.45;5.75;;;14.20;99.90;;;;;;6232218;22;20014;-82
2023/10/19 05:53:24;;;;;;;6.57;5.90;;;13.90;99.90;;;;;;6207270;22;20198;-80
2023/10/19 05:55:50;;;;;;;6.05;4.85;;;14.20;99.90;;;;;;6283030;22;20008;-84
2023/10/19 05:58:16;;;;;;;8.40;6.55;;;14.20;99.90;;;;;;6257444;22;20018;-77
2023/10/19 06:00:42;;;;;;;5.85;5.03;;;14.20;99.90;;;;;;6257490;22;20026;-78
2023/10/19 06:03:07;;;;;;;6.40;5.40;;;13.90;99.90;;;;;;6257503;22;20039;-79
2023/10/19 06:05:33;;;;;;;5.88;5.28;;;14.40;99.90;;;;;;6232146;22;20019;-78
2023/10/19 06:07:59;;;;;;;5.82;5.10;;;13.70;99.90;;;;;;6258670;22;20129;-79
2023/10/19 06:10:27;;;;;;;6.28;4.78;;;14.50;99.90;;;;;;6284907;22;20274;-82
2023/10/19 06:12:53;;;;;;;6.82;6.13;;;14.40;99.90;;;;;;6259632;22;20008;-77
2023/10/19 06:15:24;;;;;;;5.50;5.00;;;14.30;99.90;;;;;;6259829;22;20039;-81
2023/10/19 06:17:50;;;;;;;5.15;4.57;;;14.00;99.90;;;;;;6259656;22;20004;-77
2023/10/19 06:20:28;;;;;;;7.43;6.45;;;14.10;99.90;;;;;;6259052;22;20008;-80
2023/10/19 06:23:04;;;;;;;4.70;4.03;;;14.00;99.90;;;;;;6259194;22;20226;-81
2023/10/19 06:25:31;;;;;;;6.20;5.60;;;14.50;99.90;;;;;;6259488;22;20007;-78
2023/10/19 06:27:57;;;;;;;3.80;3.35;;;14.30;99.90;;;;;;6284428;22;20089;-81
2023/10/19 06:30:23;;;;;;;7.45;6.38;;;14.60;99.90;;;;;;6285085;22;20213;-78
2023/10/19 06:32:54;;;;;;;4.10;3.58;;;14.10;99.90;;;;;;6284420;22;20015;-81
2023/10/19 06:35:21;;;;;;;5.50;4.88;;;13.80;99.90;;;;;;6259274;22;20015;-80
2023/10/19 06:37:47;;;;;;;5.53;4.72;;;14.30;99.90;;;;;;6234012;22;20225;-82
2023/10/19 06:40:17;;;;;;;5.47;4.97;;;13.90;99.90;;;;;;6284626;22;20008;-77
2023/10/19 06:42:46;;;;;;;5.43;4.93;;;14.40;99.90;;;;;;6259220;22;20008;-78
2023/10/19 06:45:16;;;;;;;5.97;5.38;;;14.00;99.90;;;;;;6233774;22;20008;-79
2023/10/19 06:47:47;;;;;;;5.32;4.82;;;14.00;99.90;;;;;;6259009;22;20230;-79
2023/10/19 06:50:15;;;;;;;4.95;4.35;;;13.90;99.90;;;;;;6258833;22;20364;-78
2023/10/19 06:52:47;;;;;;;5.85;5.25;;;14.20;99.90;;;;;;6258908;22;20416;-80
2023/10/19 06:55:14;;;;;;;5.40;4.90;;;14.40;99.90;;;;;;6258958;22;20008;-79
2023/10/19 06:57:44;;;;;;;5.55;4.95;;;14.60;99.90;;;;;;6284511;22;20327;-78
2023/10/19 07:00:15;;;;;;;5.75;4.75;;;14.30;99.90;;;;;;6284803;22;20014;-75
2023/10/19 07:02:43;;;;;;;7.50;6.35;;;13.90;99.90;;;;;;6258814;22;20027;-80
2023/10/19 07:05:13;;;;;;;5.72;5.18;;;14.00;99.90;;;;;;6258747;22;20007;-81
2023/10/19 07:07:41;;;;;;;6.25;5.30;;;13.90;99.90;;;;;;6284630;22;20148;-78
2023/10/19 07:10:14;;;;;;;5.45;4.95;;;14.20;99.90;;;;;;6258777;22;20062;-80
2023/10/19 07:12:42;;;;;;;4.55;3.85;;;14.60;99.90;;;;;;6260280;22;20015;-83
2023/10/19 07:15:09;;;;;;;5.03;4.40;;;14.50;99.90;;;;;;6284482;22;20345;-79
2023/10/19 07:17:35;;;;;;;4.93;4.43;;;14.60;99.90;;;;;;6259130;22;20278;-80
2023/10/19 07:20:05;;;;;;;3.92;3.53;;;14.50;99.90;;;;;;6283679;22;20012;-77
2023/10/19 07:22:33;;;;;;;4.75;4.25;;;14.20;99.90;;;;;;6258894;22;20023;-78
2023/10/19 07:24:59;;;;;;;5.18;4.65;;;14.40;99.90;;;;;;6258454;22;20019;-77
2023/10/19 07:27:28;;;;;;;3.35;2.65;;;14.70;99.90;;;;;;6284183;22;20018;-77
2023/10/19 07:29:53;;;;;;;4.15;3.75;;;13.90;99.90;;;;;;6258609;22;20275;-81
2023/10/19 07:32:19;;;;;;;4.70;4.25;;;14.60;99.90;;;;;;6258867;22;20019;-78
2023/10/19 07:34:45;;;;;;;4.55;3.97;;;13.90;99.90;;;;;;6233329;22;20016;-79
2023/10/19 07:37:17;;;;;;;5.20;4.65;;;14.40;99.90;;;;;;6232868;22;20016;-76
2023/10/19 07:39:46;;;;;;;4.40;4.00;;;14.30;99.90;;;;;;6235824;22;20012;-82
2023/10/19 07:42:12;;;;;;;4.80;4.30;;;14.20;99.90;;;;;;6258409;22;20190;-83
2023/10/19 07:44:38;;;;;;;4.57;4.15;;;14.10;99.90;;;;;;6258849;22;20012;-81
2023/10/19 07:47:03;;;;;;;5.15;4.65;;;14.60;99.90;;;;;;6233107;22;20221;-80
2023/10/19 07:49:30;;;;;;;4.00;3.60;;;14.30;99.90;;;;;;6258775;22;20007;-77
2023/10/19 07:51:57;;;;;;;3.85;3.55;;;14.50;99.90;;;;;;6258553;22;20019;-80
2023/10/19 07:54:23;;;;;;;4.50;4.10;;;14.60;99.90;;;;;;6258784;22;20278;-79
2023/10/19 07:56:50;;;;;;;4.63;4.22;;;14.50;99.90;;;;;;6258582;22;20053;-76
2023/10/19 07:59:16;;;;;;;4.65;4.18;;;14.60;99.90;;;;;;6233528;22;20083;-79
2023/10/19 08:01:42;;;;;;;5.10;4.60;;;14.60;99.90;;;;;;6283799;22;20401;-76
2023/10/19 08:04:07;;;;;;;4.43;4.03;;;14.60;99.90;;;;;;6283807;22;20011;-77
2023/10/19 08:06:33;;;;;;;4.25;3.63;;;14.70;99.90;;;;;;6283789;22;20302;-81
2023/10/19 08:08:59;;;;;;;5.20;4.70;;;14.00;99.90;;;;;;6227900;23;20016;-78
2023/10/19 08:11:25;;;;;;;4.10;3.65;;;14.00;99.90;;;;;;6252847;23;20008;-82
2023/10/19 08:13:51;;;;;;;4.45;4.05;;;14.10;99.90;;;;;;6227361;23;20110;-79
2023/10/19 08:16:17;;;;;;;4.45;4.05;;;14.10;99.90;;;;;;6202651;23;20012;-77
2023/10/19 08:18:43;;;;;;;5.15;3.85;;;14.60;99.90;;;;;;6227742;23;20027;-81
2023/10/19 08:21:09;;;;;;;5.25;3.85;;;14.00;99.90;;;;;;6252755;23;20011;-78
2023/10/19 08:23:35;;;;;;;4.60;4.20;;;14.50;99.90;;;;;;6202534;23;20007;-79
2023/10/19 08:26:05;;;;;;;5.22;4.43;;;14.60;99.90;;;;;;6177513;23;20019;-76
2023/10/19 08:28:32;;;;;;;5.18;4.68;;;14.30;99.90;;;;;;6227755;23;20008;-76
2023/10/19 08:31:00;;;;;;;5.35;4.85;;;14.10;99.90;;;;;;6227997;23;20092;-80
2023/10/19 08:33:27;;;;;;;5.25;4.75;;;14.20;99.90;;;;;;6202688;23;20043;-80
2023/10/19 08:35:56;;;;;;;4.57;4.18;;;14.40;99.90;;;;;;6226257;23;20089;-75
2023/10/19 08:38:23;;;;;;;4.47;4.07;;;14.10;99.90;;;;;;6251957;23;20058;-80
2023/10/19 08:40:53;;;;;;;4.40;4.00;;;14.20;99.90;;;;;;6252578;23;20008;-77
2023/10/19 08:43:19;;;;;;;4.10;3.53;;;14.60;99.90;;;;;;6201022;23;20317;-79
2023/10/19 08:45:45;;;;;;;5.10;4.60;;;14.30;99.90;;;;;;6227213;23;20008;-76
2023/10/19 08:48:11;;;;;;;4.35;3.95;;;14.60;99.90;;;;;;6226577;23;20027;-79
2023/10/19 08:50:37;;;;;;;4.95;4.55;;;14.80;99.90;;;;;;6227195;23;20198;-81
2023/10/19 08:53:04;;;;;;;5.18;4.18;;;14.70;99.90;;;;;;6252842;23;20198;-78
2023/10/19 08:55:31;;;;;;;4.43;4.03;;;14.20;99.90;;;;;;6252522;23;20015;-80
2023/10/19 08:58:00;;;;;;;3.75;3.40;;;14.70;99.90;;;;;;6252589;23;20067;-78
2023/10/19 09:00:27;;;;;;;4.78;4.38;;;14.70;99.90;;;;;;6252432;23;20190;-81
2023/10/19 09:02:53;;;;;;;6.15;5.55;;;14.90;99.90;;;;;;6252068;23;20008;-81
2023/10/19 09:05:22;;;;;;;5.65;5.13;;;14.90;99.90;;;;;;6227280;23;20016;-76
2023/10/19 09:07:55;;;;;;;4.63;4.13;;;14.40;99.90;;;;;;6242276;22;20024;-81
2023/10/19 09:10:26;;;;;;;4.22;3.83;;;14.80;99.90;;;;;;6282842;22;20062;-76
2023/10/19 09:13:09;;;;;;;5.40;4.90;;;14.90;99.90;;;;;;6283128;22;20008;-75
2023/10/19 09:15:38;;;;;;;5.75;5.03;;;14.30;99.90;;;;;;6257910;22;20016;-75
2023/10/19 09:18:15;;;;;;;4.75;4.25;;;14.50;99.90;;;;;;6231974;22;20277;-76
2023/10/19 09:20:52;;;;;;;6.22;5.63;;;14.80;99.90;;;;;;6283387;22;20015;-78
2023/10/19 09:23:22;;;;;;;5.22;4.75;;;14.90;99.90;;;;;;6256757;22;20012;-75
2023/10/19 09:25:49;;;;;;;5.47;4.95;;;14.40;99.90;;;;;;6232172;22;20236;-81
2023/10/19 09:28:15;;;;;;;5.82;5.30;;;14.30;99.90;;;;;;6282465;22;20007;-78
2023/10/19 09:30:43;;;;;;;5.97;5.38;;;14.50;99.90;;;;;;6207136;22;20411;-80
2023/10/19 09:33:09;;;;;;;5.70;5.20;;;14.50;99.90;;;;;;6257384;22;20210;-80
2023/10/19 09:35:37;;;;;;;5.90;5.30;;;14.40;99.90;;;;;;6283006;22;20007;-75
2023/10/19 09:38:06;;;;;;;5.13;4.63;;;14.50;99.90;;;;;;6257315;22;20031;-78
2023/10/19 09:40:33;;;;;;;5.18;4.68;;;14.60;99.90;;;;;;6256506;22;20019;-79
2023/10/19 09:43:02;;;;;;;5.95;5.30;;;15.00;99.90;;;;;;6259186;22;20012;-76
2023/10/19 09:45:32;;;;;;;6.50;4.30;;;14.60;99.90;;;;;;6284685;22;20018;-75
2023/10/19 09:48:01;;;;;;;6.65;6.03;;;14.90;99.90;;;;;;6259351;22;20011;-80
2023/10/19 09:50:27;;;;;;;5.68;5.13;;;14.60;99.90;;;;;;6259179;22;20011;-78
2023/10/19 09:52:55;;;;;;;5.78;5.28;;;14.70;99.90;;;;;;6284934;22;20007;-77
2023/10/19 09:55:41;;;;;;;6.25;5.65;;;14.70;99.90;;;;;;6284535;22;20062;-77
2023/10/19 09:58:15;;;;;;;10.27;6.70;;;14.70;99.90;;;;;;6233758;22;20012;-80
2023/10/19 10:00:51;;;;;;;5.50;5.00;;;14.90;99.90;;;;;;6284503;22;20298;-74
2023/10/19 10:03:45;;;;;;;9.52;8.30;;;15.10;99.90;;;;;;6259063;22;20069;-77
2023/10/19 10:06:13;;;;;;;6.35;5.75;;;14.90;99.90;;;;;;6259095;22;20087;-74
2023/10/19 10:08:44;;;;;;;5.35;4.80;;;14.50;99.90;;;;;;6284652;22;20186;-78
2023/10/19 10:11:26;;;;;;;6.45;5.85;;;14.60;99.90;;;;;;6259146;22;20022;-77
2023/10/19 10:13:53;;;;;;;6.43;5.65;;;15.10;99.90;;;;;;6259315;22;20085;-80
2023/10/19 10:16:24;;;;;;;9.20;6.35;;;14.80;99.90;;;;;;6258637;22;20014;-78
2023/10/19 10:18:53;;;;;;;9.40;7.68;;;15.10;99.90;;;;;;6284195;22;20214;-77
2023/10/19 10:21:21;;;;;;;6.28;5.68;;;14.90;99.90;;;;;;6258982;22;20026;-78
2023/10/19 10:23:50;;;;;;;6.70;6.10;;;14.70;99.90;;;;;;6258711;22;20294;-74
2023/10/19 10:26:17;;;;;;;8.52;7.72;;;15.50;99.90;;;;;;6283952;22;20019;-75
2023/10/19 10:29:14;;;;;;;8.48;6.85;;;15.00;99.90;;;;;;6258719;22;20033;-75
2023/10/19 10:31:45;;;;;;;7.22;6.53;;;15.40;99.90;;;;;;6258765;22;20035;-76
2023/10/19 10:34:31;;;;;;;8.25;6.50;;;14.90;99.90;;;;;;6284465;22;20008;-77
2023/10/19 10:37:02;;;;;;;8.30;7.47;;;14.80;99.90;;;;;;6284002;22;20309;-75
2023/10/19 10:39:30;;;;;;;8.45;7.65;;;14.90;99.90;;;;;;6284261;22;20037;-76
2023/10/19 10:42:00;;;;;;;9.50;8.50;;;15.70;99.90;;;;;;6258859;22;20003;-80
2023/10/19 10:44:45;;;;;;;9.63;8.73;;;15.70;99.90;;;;;;6284091;22;20017;-78
2023/10/19 10:47:16;;;;;;;10.32;8.93;;;15.40;99.90;;;;;;6258330;22;20054;-76
2023/10/19 10:49:59;;;;;;;10.20;9.20;;;15.20;99.90;;;;;;6258769;22;20190;-78
2023/10/19 10:52:25;;;;;;;10.25;9.25;;;14.70;99.90;;;;;;6233568;22;20485;-81
2023/10/19 10:54:52;;;;;;;9.98;8.60;;;15.00;99.90;;;;;;6257627;22;20092;-78
2023/10/19 10:57:19;;;;;;;10.88;9.48;;;14.90;99.90;;;;;;6283265;22;20090;-79
2023/10/19 10:59:45;;;;;;;8.35;7.55;;;15.60;99.90;;;;;;6233097;22;20012;-77
2023/10/19 11:02:21;;;;;;;9.55;8.07;;;14.90;99.90;;;;;;6232908;22;20057;-77
2023/10/19 11:04:47;;;;;;;6.45;5.03;;;15.60;99.90;;;;;;6258508;22;20179;-77
2023/10/19 11:07:21;;;;;;;7.68;6.88;;;15.10;99.90;;;;;;6258254;22;20205;-78
2023/10/19 11:09:47;;;;;;;7.03;6.35;;;15.40;99.90;;;;;;6258666;22;20044;-79
2023/10/19 11:12:17;;;;;;;8.25;7.45;;;15.40;99.90;;;;;;6258528;22;20227;-79
2023/10/19 11:14:55;;;;;;;7.85;6.72;;;14.90;99.90;;;;;;6258141;22;20008;-78
2023/10/19 11:17:30;;;;;;;5.43;3.95;;;15.00;99.90;;;;;;6283640;22;20400;-79
2023/10/19 11:19:57;;;;;;;7.13;5.72;;;15.70;99.90;;;;;;6258833;22;20011;-81
2023/10/19 11:22:26;;;;;;;7.35;6.63;;;15.40;99.90;;;;;;6258296;22;20008;-81
2023/10/19 11:24:54;;;;;;;8.57;7.50;;;15.80;99.90;;;;;;6258826;22;20026;-81
2023/10/19 11:27:26;;;;;;;11.32;9.23;;;14.90;99.90;;;;;;6284045;22;20011;-79
2023/10/19 11:29:56;;;;;;;10.80;9.70;;;15.20;99.90;;;;;;6284190;22;20031;-81
2023/10/19 11:32:25;;;;;;;7.60;6.78;;;15.70;99.90;;;;;;6258528;22;20016;-79
2023/10/19 11:34:52;;;;;;;9.93;8.95;;;14.90;99.90;;;;;;6234225;22;20034;-76
2023/10/19 11:37:17;;;;;;;9.50;8.63;;;15.30;99.90;;;;;;6284007;22;20007;-79
2023/10/19 11:39:43;;;;;;;10.50;9.23;;;15.60;99.90;;;;;;6283764;22;20027;-77
2023/10/19 11:42:10;;;;;;;13.20;11.90;;;15.40;99.90;;;;;;6233207;22;20058;-79
2023/10/19 11:44:36;;;;;;;10.70;9.60;;;15.30;99.90;;;;;;6258496;22;20187;-81
2023/10/19 11:47:03;;;;;;;12.57;11.32;;;15.80;99.90;;;;;;6233341;22;20019;-78
2023/10/19 11:49:29;;;;;;;11.13;10.05;;;14.90;99.90;;;;;;6257993;22;20016;-76
2023/10/19 11:51:54;;;;;;;15.30;13.07;;;15.10;99.90;;;;;;6258156;22;20090;-82
2023/10/19 11:54:23;;;;;;;12.82;11.60;;;15.20;99.90;;;;;;6283530;22;20035;-76
2023/10/19 11:56:49;;;;;;;16.25;14.60;;;15.20;99.90;;;;;;6257803;22;20306;-80
2023/10/19 11:59:15;;;;;;;12.95;11.60;;;15.80;99.90;;;;;;6284222;22;20054;-78
2023/10/19 12:01:42;;;;;;;16.38;14.73;;;15.20;99.90;;;;;;6283652;22;20200;-82
2023/10/19 12:04:09;;;;;;;14.32;12.93;;;15.00;99.90;;;;;;6258680;22;20065;-78
2023/10/19 12:06:35;;;;;;;12.73;10.93;;;15.30;99.90;;;;;;6257319;22;20178;-75
2023/10/19 12:09:14;;;;;;;12.50;11.20;;;14.80;99.90;;;;;;6257002;22;20070;-76
2023/10/19 12:11:44;;;;;;;13.18;11.80;;;15.40;99.90;;;;;;6257400;22;20019;-77
2023/10/19 12:14:14;;;;;;;9.45;8.48;;;14.70;99.90;;;;;;6257712;22;20039;-80
2023/10/19 12:16:40;;;;;;;8.18;7.38;;;15.00;99.90;;;;;;6257035;22;20014;-80
2023/10/19 12:19:07;;;;;;;8.10;7.30;;;15.40;99.90;;;;;;6283334;22;20106;-81
2023/10/19 12:21:37;;;;;;;11.45;9.10;;;15.70;99.90;;;;;;6282620;22;20013;-82
2023/10/19 12:24:04;;;;;;;9.68;8.60;;;14.80;99.90;;;;;;6282723;22;20074;-81
2023/10/19 12:26:30;;;;;;;7.95;7.15;;;15.10;99.90;;;;;;6231982;22;20011;-77
2023/10/19 12:28:56;;;;;;;8.50;6.07;;;15.20;99.90;;;;;;6257460;22;20138;-80
2023/10/19 12:31:23;;;;;;;10.88;6.43;;;14.80;99.90;;;;;;6256802;22;20022;-82
2023/10/19 12:33:49;;;;;;;6.65;5.82;;;15.60;99.90;;;;;;6283161;22;20082;-82
2023/10/19 12:38:50;;;;;;;6.60;5.68;;;15.50;99.90;;;;;;6283668;22;20015;-80
2023/10/19 12:41:17;;;;;;;6.70;5.88;;;15.00;99.90;;;;;;6258396;22;20072;-80
2023/10/19 12:43:43;;;;;;;8.55;7.43;;;14.90;99.90;;;;;;6283058;22;20019;-76
2023/10/19 12:46:09;;;;;;;10.70;7.85;;;15.80;99.90;;;;;;6283585;22;20019;-77
2023/10/19 12:48:35;;;;;;;9.07;8.10;;;14.80;99.90;;;;;;6283247;22;20038;-79
2023/10/19 12:51:07;;;;;;;10.73;8.80;;;15.70;99.90;;;;;;6283268;22;20016;-79
2023/10/19 12:53:33;;;;;;;10.02;7.90;;;14.80;99.90;;;;;;6282901;22;20049;-83
2023/10/19 12:55:59;;;;;;;8.60;7.55;;;14.90;99.90;;;;;;6281219;22;20012;-80
2023/10/19 12:58:27;;;;;;;10.50;8.30;;;15.10;99.90;;;;;;6256286;22;20011;-76
2023/10/19 13:00:54;;;;;;;9.52;6.93;;;15.00;99.90;;;;;;6282818;22;20019;-81
2023/10/19 13:03:21;;;;;;;7.53;6.80;;;15.70;99.90;;;;;;6257419;22;20306;-75
2023/10/19 13:05:49;;;;;;;8.63;7.65;;;14.70;99.90;;;;;;6282356;22;20027;-78
2023/10/19 13:08:15;;;;;;;7.75;6.53;;;15.70;99.90;;;;;;6231749;22;20228;-81
2023/10/19 13:10:48;;;;;;;13.32;7.70;;;15.00;99.90;;;;;;6282273;22;20024;-80
2023/10/19 13:13:14;;;;;;;8.60;7.65;;;14.80;99.90;;;;;;6282327;22;20008;-79
2023/10/19 13:15:45;;;;;;;8.68;7.03;;;15.50;99.90;;;;;;6256656;22;20004;-75